sensor_id;sensor_type;location;lat;lon;timestamp;temperature;humidity
12853;DHT22;6495;51.808;7.478;2022-07-04T00:02:02;18.50;77.90
12853;DHT22;6495;51.808;7.478;2022-07-04T00:04:31;18.50;78.10
12853;DHT22;6495;51.808;7.478;2022-07-04T00:07:00;18.40;78.00
12853;DHT22;6495;51.808;7.478;2022-07-04T00:09:28;18.40;78.20
12853;DHT22;6495;51.808;7.478;2022-07-04T00:11:56;18.40;78.30
12853;DHT22;6495;51.808;7.478;2022-07-04T00:14:24;18.30;78.30
12853;DHT22;6495;51.808;7.478;2022-07-04T00:16:53;18.30;78.40
12853;DHT22;6495;51.808;7.478;2022-07-04T00:19:21;18.20;78.50
12853;DHT22;6495;51.808;7.478;2022-07-04T00:21:51;18.20;78.60
12853;DHT22;6495;51.808;7.478;2022-07-04T00:24:19;18.20;78.70
12853;DHT22;6495;51.808;7.478;2022-07-04T00:26:47;18.20;78.80
12853;DHT22;6495;51.808;7.478;2022-07-04T00:29:15;18.10;78.80
12853;DHT22;6495;51.808;7.478;2022-07-04T00:31:44;18.00;78.90
12853;DHT22;6495;51.808;7.478;2022-07-04T00:34:12;18.00;79.00
12853;DHT22;6495;51.808;7.478;2022-07-04T00:36:40;18.00;79.20
12853;DHT22;6495;51.808;7.478;2022-07-04T00:39:10;17.90;79.20
12853;DHT22;6495;51.808;7.478;2022-07-04T00:41:38;17.90;79.20
12853;DHT22;6495;51.808;7.478;2022-07-04T00:44:08;17.90;79.20
12853;DHT22;6495;51.808;7.478;2022-07-04T00:46:39;17.90;79.40
12853;DHT22;6495;51.808;7.478;2022-07-04T00:49:08;17.80;79.50
12853;DHT22;6495;51.808;7.478;2022-07-04T00:51:38;17.80;79.40
12853;DHT22;6495;51.808;7.478;2022-07-04T00:54:10;17.70;79.50
12853;DHT22;6495;51.808;7.478;2022-07-04T00:56:42;17.70;79.60
12853;DHT22;6495;51.808;7.478;2022-07-04T00:59:12;17.70;79.60
12853;DHT22;6495;51.808;7.478;2022-07-04T01:01:40;17.60;79.80
12853;DHT22;6495;51.808;7.478;2022-07-04T01:04:08;17.60;80.00
12853;DHT22;6495;51.808;7.478;2022-07-04T01:06:37;17.60;80.20
12853;DHT22;6495;51.808;7.478;2022-07-04T01:09:06;17.50;80.20
12853;DHT22;6495;51.808;7.478;2022-07-04T01:11:36;17.50;80.30
12853;DHT22;6495;51.808;7.478;2022-07-04T01:14:04;17.40;80.10
12853;DHT22;6495;51.808;7.478;2022-07-04T01:16:33;17.40;80.20
12853;DHT22;6495;51.808;7.478;2022-07-04T01:19:02;17.40;80.30
12853;DHT22;6495;51.808;7.478;2022-07-04T01:21:32;17.40;80.40
12853;DHT22;6495;51.808;7.478;2022-07-04T01:24:01;17.30;80.40
12853;DHT22;6495;51.808;7.478;2022-07-04T01:26:29;17.30;80.60
12853;DHT22;6495;51.808;7.478;2022-07-04T01:28:58;17.20;80.70
12853;DHT22;6495;51.808;7.478;2022-07-04T01:31:26;17.20;80.80
12853;DHT22;6495;51.808;7.478;2022-07-04T01:33:54;17.20;80.90
12853;DHT22;6495;51.808;7.478;2022-07-04T01:36:22;17.10;81.00
12853;DHT22;6495;51.808;7.478;2022-07-04T01:38:52;17.10;81.10
12853;DHT22;6495;51.808;7.478;2022-07-04T01:41:21;17.00;81.10
12853;DHT22;6495;51.808;7.478;2022-07-04T01:43:49;17.00;81.30
12853;DHT22;6495;51.808;7.478;2022-07-04T01:46:17;17.00;81.50
12853;DHT22;6495;51.808;7.478;2022-07-04T01:48:45;16.90;81.50
12853;DHT22;6495;51.808;7.478;2022-07-04T01:51:13;16.90;81.80
12853;DHT22;6495;51.808;7.478;2022-07-04T01:53:42;16.90;82.20
12853;DHT22;6495;51.808;7.478;2022-07-04T01:56:11;16.80;82.30
12853;DHT22;6495;51.808;7.478;2022-07-04T01:58:39;16.80;82.30
12853;DHT22;6495;51.808;7.478;2022-07-04T02:01:07;16.80;82.50
12853;DHT22;6495;51.808;7.478;2022-07-04T02:03:54;16.70;82.60
12853;DHT22;6495;51.808;7.478;2022-07-04T02:06:22;16.70;82.90
12853;DHT22;6495;51.808;7.478;2022-07-04T02:08:50;16.60;82.70
12853;DHT22;6495;51.808;7.478;2022-07-04T02:11:37;16.60;82.90
12853;DHT22;6495;51.808;7.478;2022-07-04T02:14:24;16.60;82.90
12853;DHT22;6495;51.808;7.478;2022-07-04T02:16:52;16.50;82.80
12853;DHT22;6495;51.808;7.478;2022-07-04T02:19:20;16.50;83.10
12853;DHT22;6495;51.808;7.478;2022-07-04T02:21:48;16.50;83.30
12853;DHT22;6495;51.808;7.478;2022-07-04T02:24:16;16.50;83.50
12853;DHT22;6495;51.808;7.478;2022-07-04T02:26:46;16.50;83.70
12853;DHT22;6495;51.808;7.478;2022-07-04T02:29:15;16.40;83.80
12853;DHT22;6495;51.808;7.478;2022-07-04T02:31:44;16.40;84.00
12853;DHT22;6495;51.808;7.478;2022-07-04T02:34:12;16.40;84.20
12853;DHT22;6495;51.808;7.478;2022-07-04T02:36:40;16.40;84.30
12853;DHT22;6495;51.808;7.478;2022-07-04T02:39:08;16.40;84.50
12853;DHT22;6495;51.808;7.478;2022-07-04T02:41:36;16.30;84.60
12853;DHT22;6495;51.808;7.478;2022-07-04T02:44:06;16.30;84.80
12853;DHT22;6495;51.808;7.478;2022-07-04T02:46:34;16.30;84.90
12853;DHT22;6495;51.808;7.478;2022-07-04T02:49:03;16.30;85.10
12853;DHT22;6495;51.808;7.478;2022-07-04T02:51:31;16.30;85.30
12853;DHT22;6495;51.808;7.478;2022-07-04T02:54:00;16.20;85.50
12853;DHT22;6495;51.808;7.478;2022-07-04T02:56:28;16.20;85.60
12853;DHT22;6495;51.808;7.478;2022-07-04T02:58:56;16.20;85.90
12853;DHT22;6495;51.808;7.478;2022-07-04T03:01:26;16.10;85.80
12853;DHT22;6495;51.808;7.478;2022-07-04T03:03:54;16.10;85.90
12853;DHT22;6495;51.808;7.478;2022-07-04T03:06:23;16.10;86.20
12853;DHT22;6495;51.808;7.478;2022-07-04T03:08:51;16.00;86.50
12853;DHT22;6495;51.808;7.478;2022-07-04T03:11:19;16.00;86.40
12853;DHT22;6495;51.808;7.478;2022-07-04T03:13:47;16.00;86.50
12853;DHT22;6495;51.808;7.478;2022-07-04T03:16:16;15.90;86.30
12853;DHT22;6495;51.808;7.478;2022-07-04T03:18:45;15.90;86.40
12853;DHT22;6495;51.808;7.478;2022-07-04T03:21:14;15.80;86.30
12853;DHT22;6495;51.808;7.478;2022-07-04T03:23:42;15.80;86.50
12853;DHT22;6495;51.808;7.478;2022-07-04T03:26:24;15.80;86.60
12853;DHT22;6495;51.808;7.478;2022-07-04T03:28:53;15.70;86.50
12853;DHT22;6495;51.808;7.478;2022-07-04T03:31:21;15.70;86.50
12853;DHT22;6495;51.808;7.478;2022-07-04T03:33:51;15.60;86.70
12853;DHT22;6495;51.808;7.478;2022-07-04T03:36:20;15.60;86.80
12853;DHT22;6495;51.808;7.478;2022-07-04T03:38:49;15.50;86.80
12853;DHT22;6495;51.808;7.478;2022-07-04T03:41:17;15.50;87.00
12853;DHT22;6495;51.808;7.478;2022-07-04T03:43:45;15.50;87.10
12853;DHT22;6495;51.808;7.478;2022-07-04T03:46:13;15.40;87.20
12853;DHT22;6495;51.808;7.478;2022-07-04T03:48:42;15.40;87.40
12853;DHT22;6495;51.808;7.478;2022-07-04T03:51:12;15.40;87.60
12853;DHT22;6495;51.808;7.478;2022-07-04T03:53:41;15.40;87.90
12853;DHT22;6495;51.808;7.478;2022-07-04T03:56:09;15.40;88.00
12853;DHT22;6495;51.808;7.478;2022-07-04T03:58:38;15.40;88.10
12853;DHT22;6495;51.808;7.478;2022-07-04T04:01:06;15.40;88.10
12853;DHT22;6495;51.808;7.478;2022-07-04T04:03:34;15.30;88.20
12853;DHT22;6495;51.808;7.478;2022-07-04T04:06:22;15.30;88.50
12853;DHT22;6495;51.808;7.478;2022-07-04T04:08:50;15.30;88.70
12853;DHT22;6495;51.808;7.478;2022-07-04T04:11:18;15.30;89.20
12853;DHT22;6495;51.808;7.478;2022-07-04T04:13:48;15.30;89.50
12853;DHT22;6495;51.808;7.478;2022-07-04T04:16:16;15.30;89.80
12853;DHT22;6495;51.808;7.478;2022-07-04T04:18:45;15.30;90.00
12853;DHT22;6495;51.808;7.478;2022-07-04T04:21:13;15.30;90.20
12853;DHT22;6495;51.808;7.478;2022-07-04T04:23:42;15.30;90.30
12853;DHT22;6495;51.808;7.478;2022-07-04T04:26:10;15.30;90.30
12853;DHT22;6495;51.808;7.478;2022-07-04T04:28:39;15.30;90.60
12853;DHT22;6495;51.808;7.478;2022-07-04T04:31:07;15.30;90.70
12853;DHT22;6495;51.808;7.478;2022-07-04T04:33:35;15.30;90.90
12853;DHT22;6495;51.808;7.478;2022-07-04T04:36:04;15.30;91.20
12853;DHT22;6495;51.808;7.478;2022-07-04T04:38:32;15.30;91.40
12853;DHT22;6495;51.808;7.478;2022-07-04T04:41:02;15.30;91.60
12853;DHT22;6495;51.808;7.478;2022-07-04T04:43:31;15.30;91.80
12853;DHT22;6495;51.808;7.478;2022-07-04T04:45:59;15.30;92.30
12853;DHT22;6495;51.808;7.478;2022-07-04T04:48:28;15.30;92.40
12853;DHT22;6495;51.808;7.478;2022-07-04T04:50:56;15.20;92.90
12853;DHT22;6495;51.808;7.478;2022-07-04T04:53:24;15.20;93.30
12853;DHT22;6495;51.808;7.478;2022-07-04T04:55:53;15.20;93.50
12853;DHT22;6495;51.808;7.478;2022-07-04T04:58:23;15.10;93.80
12853;DHT22;6495;51.808;7.478;2022-07-04T05:00:54;15.10;93.60
12853;DHT22;6495;51.808;7.478;2022-07-04T05:03:42;15.10;93.70
12853;DHT22;6495;51.808;7.478;2022-07-04T05:06:10;15.10;93.60
12853;DHT22;6495;51.808;7.478;2022-07-04T05:08:39;15.10;93.90
12853;DHT22;6495;51.808;7.478;2022-07-04T05:11:07;15.20;94.10
12853;DHT22;6495;51.808;7.478;2022-07-04T05:13:36;15.20;94.20
12853;DHT22;6495;51.808;7.478;2022-07-04T05:16:04;15.30;94.30
12853;DHT22;6495;51.808;7.478;2022-07-04T05:18:32;15.30;94.30
12853;DHT22;6495;51.808;7.478;2022-07-04T05:21:01;15.40;94.50
12853;DHT22;6495;51.808;7.478;2022-07-04T05:23:29;15.40;94.50
12853;DHT22;6495;51.808;7.478;2022-07-04T05:25:57;15.50;94.90
12853;DHT22;6495;51.808;7.478;2022-07-04T05:28:25;15.50;95.00
12853;DHT22;6495;51.808;7.478;2022-07-04T05:30:54;15.50;95.10
12853;DHT22;6495;51.808;7.478;2022-07-04T05:33:22;15.60;95.30
12853;DHT22;6495;51.808;7.478;2022-07-04T05:35:50;15.60;95.60
12853;DHT22;6495;51.808;7.478;2022-07-04T05:38:18;15.70;96.20
12853;DHT22;6495;51.808;7.478;2022-07-04T05:40:46;15.70;96.10
12853;DHT22;6495;51.808;7.478;2022-07-04T05:43:15;15.80;96.30
12853;DHT22;6495;51.808;7.478;2022-07-04T05:45:43;15.90;97.00
12853;DHT22;6495;51.808;7.478;2022-07-04T05:48:14;16.00;97.00
12853;DHT22;6495;51.808;7.478;2022-07-04T05:50:52;16.20;97.40
12853;DHT22;6495;51.808;7.478;2022-07-04T05:53:21;16.30;98.00
12853;DHT22;6495;51.808;7.478;2022-07-04T05:55:49;16.40;98.20
12853;DHT22;6495;51.808;7.478;2022-07-04T05:58:17;16.50;98.40
12853;DHT22;6495;51.808;7.478;2022-07-04T06:00:49;16.60;98.60
12853;DHT22;6495;51.808;7.478;2022-07-04T06:03:20;16.70;98.40
12853;DHT22;6495;51.808;7.478;2022-07-04T06:05:53;16.90;98.80
12853;DHT22;6495;51.808;7.478;2022-07-04T06:08:46;17.00;98.70
12853;DHT22;6495;51.808;7.478;2022-07-04T06:11:38;17.10;99.30
12853;DHT22;6495;51.808;7.478;2022-07-04T06:14:13;17.20;98.90
12853;DHT22;6495;51.808;7.478;2022-07-04T06:16:42;17.30;98.80
12853;DHT22;6495;51.808;7.478;2022-07-04T06:19:11;17.40;98.70
12853;DHT22;6495;51.808;7.478;2022-07-04T06:21:40;17.60;98.90
12853;DHT22;6495;51.808;7.478;2022-07-04T06:24:08;17.70;98.90
12853;DHT22;6495;51.808;7.478;2022-07-04T06:26:36;17.80;99.20
12853;DHT22;6495;51.808;7.478;2022-07-04T06:29:05;18.00;98.70
12853;DHT22;6495;51.808;7.478;2022-07-04T06:31:33;18.10;98.60
12853;DHT22;6495;51.808;7.478;2022-07-04T06:34:02;18.20;98.50
12853;DHT22;6495;51.808;7.478;2022-07-04T06:37:07;18.30;98.40
12853;DHT22;6495;51.808;7.478;2022-07-04T06:39:35;18.40;98.30
12853;DHT22;6495;51.808;7.478;2022-07-04T06:42:04;18.50;98.00
12853;DHT22;6495;51.808;7.478;2022-07-04T06:44:32;18.60;98.20
12853;DHT22;6495;51.808;7.478;2022-07-04T06:47:00;18.70;98.10
12853;DHT22;6495;51.808;7.478;2022-07-04T06:49:28;18.80;97.80
12853;DHT22;6495;51.808;7.478;2022-07-04T06:51:56;18.90;97.90
12853;DHT22;6495;51.808;7.478;2022-07-04T06:54:46;19.00;97.80
12853;DHT22;6495;51.808;7.478;2022-07-04T06:57:48;19.10;97.70
12853;DHT22;6495;51.808;7.478;2022-07-04T07:00:16;19.30;97.50
12853;DHT22;6495;51.808;7.478;2022-07-04T07:02:59;19.40;97.40
12853;DHT22;6495;51.808;7.478;2022-07-04T07:05:31;19.50;97.10
12853;DHT22;6495;51.808;7.478;2022-07-04T07:08:24;19.60;96.70
12853;DHT22;6495;51.808;7.478;2022-07-04T07:11:02;19.70;96.60
12853;DHT22;6495;51.808;7.478;2022-07-04T07:13:41;19.80;96.50
12853;DHT22;6495;51.808;7.478;2022-07-04T07:16:45;19.90;96.20
12853;DHT22;6495;51.808;7.478;2022-07-04T07:19:25;20.00;95.80
12853;DHT22;6495;51.808;7.478;2022-07-04T07:22:16;20.00;95.80
12853;DHT22;6495;51.808;7.478;2022-07-04T07:24:49;20.10;95.60
12853;DHT22;6495;51.808;7.478;2022-07-04T07:27:19;20.20;95.60
12853;DHT22;6495;51.808;7.478;2022-07-04T07:29:49;20.30;95.70
12853;DHT22;6495;51.808;7.478;2022-07-04T07:32:23;20.30;95.40
12853;DHT22;6495;51.808;7.478;2022-07-04T07:35:06;20.40;95.30
12853;DHT22;6495;51.808;7.478;2022-07-04T07:37:36;20.50;95.00
12853;DHT22;6495;51.808;7.478;2022-07-04T07:40:07;20.50;94.80
12853;DHT22;6495;51.808;7.478;2022-07-04T07:42:42;20.60;94.90
12853;DHT22;6495;51.808;7.478;2022-07-04T07:45:11;20.70;94.80
12853;DHT22;6495;51.808;7.478;2022-07-04T07:47:49;20.80;94.70
12853;DHT22;6495;51.808;7.478;2022-07-04T07:50:17;20.90;94.30
12853;DHT22;6495;51.808;7.478;2022-07-04T07:52:48;20.90;93.90
12853;DHT22;6495;51.808;7.478;2022-07-04T07:55:16;21.00;93.70
12853;DHT22;6495;51.808;7.478;2022-07-04T07:57:49;21.10;93.60
12853;DHT22;6495;51.808;7.478;2022-07-04T08:00:20;21.20;93.70
12853;DHT22;6495;51.808;7.478;2022-07-04T08:03:11;21.20;93.40
12853;DHT22;6495;51.808;7.478;2022-07-04T08:05:57;21.30;93.30
12853;DHT22;6495;51.808;7.478;2022-07-04T08:08:26;21.30;92.90
12853;DHT22;6495;51.808;7.478;2022-07-04T08:10:56;21.30;92.80
12853;DHT22;6495;51.808;7.478;2022-07-04T08:13:37;21.40;92.80
12853;DHT22;6495;51.808;7.478;2022-07-04T08:16:18;21.50;92.80
12853;DHT22;6495;51.808;7.478;2022-07-04T08:19:21;21.70;92.60
12853;DHT22;6495;51.808;7.478;2022-07-04T08:21:56;21.80;92.50
12853;DHT22;6495;51.808;7.478;2022-07-04T08:24:43;21.90;92.40
12853;DHT22;6495;51.808;7.478;2022-07-04T08:27:27;22.00;92.40
12853;DHT22;6495;51.808;7.478;2022-07-04T08:30:01;22.10;92.20
12853;DHT22;6495;51.808;7.478;2022-07-04T08:32:34;22.10;90.80
12853;DHT22;6495;51.808;7.478;2022-07-04T08:35:05;22.10;90.90
12853;DHT22;6495;51.808;7.478;2022-07-04T08:37:41;22.10;90.90
12853;DHT22;6495;51.808;7.478;2022-07-04T08:40:20;22.20;90.60
12853;DHT22;6495;51.808;7.478;2022-07-04T08:43:02;22.30;90.30
12853;DHT22;6495;51.808;7.478;2022-07-04T08:45:43;22.40;90.30
12853;DHT22;6495;51.808;7.478;2022-07-04T08:48:38;22.50;89.10
12853;DHT22;6495;51.808;7.478;2022-07-04T08:51:29;22.60;90.10
12853;DHT22;6495;51.808;7.478;2022-07-04T08:54:13;22.60;86.80
12853;DHT22;6495;51.808;7.478;2022-07-04T08:57:03;22.60;88.50
12853;DHT22;6495;51.808;7.478;2022-07-04T08:59:46;22.70;88.60
12853;DHT22;6495;51.808;7.478;2022-07-04T09:02:20;22.70;87.90
12853;DHT22;6495;51.808;7.478;2022-07-04T09:05:00;22.80;87.20
12853;DHT22;6495;51.808;7.478;2022-07-04T09:07:38;22.80;86.90
12853;DHT22;6495;51.808;7.478;2022-07-04T09:10:13;22.90;87.20
12853;DHT22;6495;51.808;7.478;2022-07-04T09:12:43;23.00;86.00
12853;DHT22;6495;51.808;7.478;2022-07-04T09:15:32;23.10;86.30
12853;DHT22;6495;51.808;7.478;2022-07-04T09:18:05;23.10;86.20
12853;DHT22;6495;51.808;7.478;2022-07-04T09:20:36;23.20;85.10
12853;DHT22;6495;51.808;7.478;2022-07-04T09:23:17;23.30;86.20
12853;DHT22;6495;51.808;7.478;2022-07-04T09:26:10;23.40;83.50
12853;DHT22;6495;51.808;7.478;2022-07-04T09:28:50;23.30;82.50
12853;DHT22;6495;51.808;7.478;2022-07-04T09:31:24;23.30;84.70
12853;DHT22;6495;51.808;7.478;2022-07-04T09:34:02;23.30;84.50
12853;DHT22;6495;51.808;7.478;2022-07-04T09:36:44;23.30;83.60
12853;DHT22;6495;51.808;7.478;2022-07-04T09:39:20;23.30;84.50
12853;DHT22;6495;51.808;7.478;2022-07-04T09:41:54;23.40;83.80
12853;DHT22;6495;51.808;7.478;2022-07-04T09:44:43;23.50;82.10
12853;DHT22;6495;51.808;7.478;2022-07-04T09:47:21;23.60;79.70
12853;DHT22;6495;51.808;7.478;2022-07-04T09:50:00;23.60;82.90
12853;DHT22;6495;51.808;7.478;2022-07-04T09:52:47;23.60;82.20
12853;DHT22;6495;51.808;7.478;2022-07-04T09:55:26;23.70;82.10
12853;DHT22;6495;51.808;7.478;2022-07-04T09:57:57;23.80;81.70
12853;DHT22;6495;51.808;7.478;2022-07-04T10:00:33;23.80;80.90
12853;DHT22;6495;51.808;7.478;2022-07-04T10:03:21;23.80;80.90
12853;DHT22;6495;51.808;7.478;2022-07-04T10:06:04;23.80;79.20
12853;DHT22;6495;51.808;7.478;2022-07-04T10:08:34;23.80;79.80
12853;DHT22;6495;51.808;7.478;2022-07-04T10:11:08;23.90;81.00
12853;DHT22;6495;51.808;7.478;2022-07-04T10:13:47;23.90;79.80
12853;DHT22;6495;51.808;7.478;2022-07-04T10:16:19;24.00;80.30
12853;DHT22;6495;51.808;7.478;2022-07-04T10:18:54;24.10;80.20
12853;DHT22;6495;51.808;7.478;2022-07-04T10:21:27;24.10;79.40
12853;DHT22;6495;51.808;7.478;2022-07-04T10:23:56;24.20;79.30
12853;DHT22;6495;51.808;7.478;2022-07-04T10:26:28;24.20;79.40
12853;DHT22;6495;51.808;7.478;2022-07-04T10:29:01;24.30;79.10
12853;DHT22;6495;51.808;7.478;2022-07-04T10:31:40;24.40;78.10
12853;DHT22;6495;51.808;7.478;2022-07-04T10:34:21;24.50;78.10
12853;DHT22;6495;51.808;7.478;2022-07-04T10:37:01;24.50;77.30
12853;DHT22;6495;51.808;7.478;2022-07-04T10:39:48;24.60;77.30
12853;DHT22;6495;51.808;7.478;2022-07-04T10:46:35;24.80;75.20
12853;DHT22;6495;51.808;7.478;2022-07-04T10:49:25;24.80;74.80
12853;DHT22;6495;51.808;7.478;2022-07-04T10:52:12;24.80;75.60
12853;DHT22;6495;51.808;7.478;2022-07-04T10:55:01;24.80;75.10
12853;DHT22;6495;51.808;7.478;2022-07-04T10:57:53;24.90;75.30
12853;DHT22;6495;51.808;7.478;2022-07-04T11:00:36;24.90;73.70
12853;DHT22;6495;51.808;7.478;2022-07-04T11:03:33;25.00;74.20
12853;DHT22;6495;51.808;7.478;2022-07-04T11:06:52;25.00;71.90
12853;DHT22;6495;51.808;7.478;2022-07-04T11:09:24;25.00;74.50
12853;DHT22;6495;51.808;7.478;2022-07-04T11:11:56;25.00;75.20
12853;DHT22;6495;51.808;7.478;2022-07-04T11:14:31;25.10;74.00
12853;DHT22;6495;51.808;7.478;2022-07-04T11:17:13;25.20;72.90
12853;DHT22;6495;51.808;7.478;2022-07-04T11:19:44;25.30;73.50
12853;DHT22;6495;51.808;7.478;2022-07-04T11:22:22;25.40;73.10
12853;DHT22;6495;51.808;7.478;2022-07-04T11:24:52;25.50;72.70
12853;DHT22;6495;51.808;7.478;2022-07-04T11:27:22;25.50;72.40
12853;DHT22;6495;51.808;7.478;2022-07-04T11:29:51;25.50;72.30
12853;DHT22;6495;51.808;7.478;2022-07-04T11:32:20;25.40;71.10
12853;DHT22;6495;51.808;7.478;2022-07-04T11:34:57;25.30;70.60
12853;DHT22;6495;51.808;7.478;2022-07-04T11:37:27;25.30;70.30
12853;DHT22;6495;51.808;7.478;2022-07-04T11:39:58;25.20;71.10
12853;DHT22;6495;51.808;7.478;2022-07-04T11:42:40;25.20;71.50
12853;DHT22;6495;51.808;7.478;2022-07-04T11:45:51;25.30;71.90
12853;DHT22;6495;51.808;7.478;2022-07-04T11:48:23;25.30;71.20
12853;DHT22;6495;51.808;7.478;2022-07-04T11:50:52;25.30;71.00
12853;DHT22;6495;51.808;7.478;2022-07-04T11:53:21;25.30;71.10
12853;DHT22;6495;51.808;7.478;2022-07-04T11:55:54;25.40;71.40
12853;DHT22;6495;51.808;7.478;2022-07-04T11:58:23;25.40;70.90
12853;DHT22;6495;51.808;7.478;2022-07-04T12:00:52;25.50;70.80
12853;DHT22;6495;51.808;7.478;2022-07-04T12:03:20;25.50;70.20
12853;DHT22;6495;51.808;7.478;2022-07-04T12:06:00;25.50;70.00
12853;DHT22;6495;51.808;7.478;2022-07-04T12:08:28;25.60;68.90
12853;DHT22;6495;51.808;7.478;2022-07-04T12:10:58;25.60;69.40
12853;DHT22;6495;51.808;7.478;2022-07-04T12:13:27;25.50;68.70
12853;DHT22;6495;51.808;7.478;2022-07-04T12:15:57;25.50;68.70
12853;DHT22;6495;51.808;7.478;2022-07-04T12:18:31;25.40;68.60
12853;DHT22;6495;51.808;7.478;2022-07-04T12:21:11;25.50;68.80
12853;DHT22;6495;51.808;7.478;2022-07-04T12:23:50;25.50;67.90
12853;DHT22;6495;51.808;7.478;2022-07-04T12:26:44;25.50;67.60
12853;DHT22;6495;51.808;7.478;2022-07-04T12:29:21;25.50;67.30
12853;DHT22;6495;51.808;7.478;2022-07-04T12:31:57;25.50;68.20
12853;DHT22;6495;51.808;7.478;2022-07-04T12:34:26;25.50;67.90
12853;DHT22;6495;51.808;7.478;2022-07-04T12:36:56;25.60;68.40
12853;DHT22;6495;51.808;7.478;2022-07-04T12:39:29;25.70;68.70
12853;DHT22;6495;51.808;7.478;2022-07-04T12:42:07;25.70;67.90
12853;DHT22;6495;51.808;7.478;2022-07-04T12:44:40;25.80;67.30
12853;DHT22;6495;51.808;7.478;2022-07-04T12:47:11;25.80;67.20
12853;DHT22;6495;51.808;7.478;2022-07-04T12:49:55;25.90;66.90
12853;DHT22;6495;51.808;7.478;2022-07-04T12:53:04;25.90;66.80
12853;DHT22;6495;51.808;7.478;2022-07-04T12:56:02;26.00;66.30
12853;DHT22;6495;51.808;7.478;2022-07-04T12:58:47;26.00;66.20
12853;DHT22;6495;51.808;7.478;2022-07-04T13:01:30;26.00;64.20
12853;DHT22;6495;51.808;7.478;2022-07-04T13:04:07;26.00;66.10
12853;DHT22;6495;51.808;7.478;2022-07-04T13:06:46;26.10;66.20
12853;DHT22;6495;51.808;7.478;2022-07-04T13:09:33;26.10;66.40
12853;DHT22;6495;51.808;7.478;2022-07-04T13:12:16;26.20;65.30
12853;DHT22;6495;51.808;7.478;2022-07-04T13:15:00;26.20;65.40
12853;DHT22;6495;51.808;7.478;2022-07-04T13:17:33;26.20;66.10
12853;DHT22;6495;51.808;7.478;2022-07-04T13:20:02;26.20;66.20
12853;DHT22;6495;51.808;7.478;2022-07-04T13:22:39;26.30;66.60
12853;DHT22;6495;51.808;7.478;2022-07-04T13:25:30;26.40;66.50
12853;DHT22;6495;51.808;7.478;2022-07-04T13:28:00;26.50;65.40
12853;DHT22;6495;51.808;7.478;2022-07-04T13:30:33;26.50;66.10
12853;DHT22;6495;51.808;7.478;2022-07-04T13:33:04;26.60;65.60
12853;DHT22;6495;51.808;7.478;2022-07-04T13:35:34;26.60;65.40
12853;DHT22;6495;51.808;7.478;2022-07-04T13:39:01;26.70;65.60
12853;DHT22;6495;51.808;7.478;2022-07-04T13:41:33;26.70;65.30
12853;DHT22;6495;51.808;7.478;2022-07-04T13:44:05;26.70;64.50
12853;DHT22;6495;51.808;7.478;2022-07-04T13:46:36;26.70;63.50
12853;DHT22;6495;51.808;7.478;2022-07-04T13:49:04;26.50;63.40
12853;DHT22;6495;51.808;7.478;2022-07-04T13:51:39;26.30;63.20
12853;DHT22;6495;51.808;7.478;2022-07-04T13:54:08;26.30;64.60
12853;DHT22;6495;51.808;7.478;2022-07-04T13:56:38;26.30;64.80
12853;DHT22;6495;51.808;7.478;2022-07-04T13:59:07;26.40;64.60
12853;DHT22;6495;51.808;7.478;2022-07-04T14:01:37;26.60;64.60
12853;DHT22;6495;51.808;7.478;2022-07-04T14:04:06;26.70;64.00
12853;DHT22;6495;51.808;7.478;2022-07-04T14:06:34;26.80;63.00
12853;DHT22;6495;51.808;7.478;2022-07-04T14:09:02;26.80;62.30
12853;DHT22;6495;51.808;7.478;2022-07-04T14:11:30;26.90;62.40
12853;DHT22;6495;51.808;7.478;2022-07-04T14:14:01;26.90;62.90
12853;DHT22;6495;51.808;7.478;2022-07-04T14:16:56;26.90;62.20
12853;DHT22;6495;51.808;7.478;2022-07-04T14:19:24;26.80;59.10
12853;DHT22;6495;51.808;7.478;2022-07-04T14:21:52;26.80;62.50
12853;DHT22;6495;51.808;7.478;2022-07-04T14:24:23;26.80;61.90
12853;DHT22;6495;51.808;7.478;2022-07-04T14:26:52;26.80;62.30
12853;DHT22;6495;51.808;7.478;2022-07-04T14:29:20;26.80;61.80
12853;DHT22;6495;51.808;7.478;2022-07-04T14:31:48;26.80;61.90
12853;DHT22;6495;51.808;7.478;2022-07-04T14:34:19;26.70;61.80
12853;DHT22;6495;51.808;7.478;2022-07-04T14:36:47;26.70;61.70
12853;DHT22;6495;51.808;7.478;2022-07-04T14:39:15;26.70;61.60
12853;DHT22;6495;51.808;7.478;2022-07-04T14:42:14;26.70;61.70
12853;DHT22;6495;51.808;7.478;2022-07-04T14:45:09;26.70;60.60
12853;DHT22;6495;51.808;7.478;2022-07-04T14:48:21;26.70;60.20
12853;DHT22;6495;51.808;7.478;2022-07-04T14:50:53;26.70;61.30
12853;DHT22;6495;51.808;7.478;2022-07-04T14:53:23;26.80;61.10
12853;DHT22;6495;51.808;7.478;2022-07-04T14:55:55;26.70;61.10
12853;DHT22;6495;51.808;7.478;2022-07-04T15:01:51;26.80;61.20
12853;DHT22;6495;51.808;7.478;2022-07-04T15:04:50;26.80;61.10
12853;DHT22;6495;51.808;7.478;2022-07-04T15:07:44;26.80;61.30
12853;DHT22;6495;51.808;7.478;2022-07-04T15:10:19;27.00;61.30
12853;DHT22;6495;51.808;7.478;2022-07-04T15:13:07;27.10;60.90
12853;DHT22;6495;51.808;7.478;2022-07-04T15:15:36;27.20;61.10
12853;DHT22;6495;51.808;7.478;2022-07-04T15:18:10;27.20;60.10
12853;DHT22;6495;51.808;7.478;2022-07-04T15:20:38;27.00;59.90
12853;DHT22;6495;51.808;7.478;2022-07-04T15:23:48;26.80;60.20
12853;DHT22;6495;51.808;7.478;2022-07-04T15:26:34;26.70;60.40
12853;DHT22;6495;51.808;7.478;2022-07-04T15:29:13;26.60;61.00
12853;DHT22;6495;51.808;7.478;2022-07-04T15:32:01;26.50;61.20
12853;DHT22;6495;51.808;7.478;2022-07-04T15:34:54;26.30;61.30
12853;DHT22;6495;51.808;7.478;2022-07-04T15:37:40;26.20;62.00
12853;DHT22;6495;51.808;7.478;2022-07-04T15:40:10;26.30;62.00
12853;DHT22;6495;51.808;7.478;2022-07-04T15:42:41;26.30;61.30
12853;DHT22;6495;51.808;7.478;2022-07-04T15:45:10;26.20;61.80
12853;DHT22;6495;51.808;7.478;2022-07-04T15:47:39;26.20;61.30
12853;DHT22;6495;51.808;7.478;2022-07-04T15:50:09;26.30;61.70
12853;DHT22;6495;51.808;7.478;2022-07-04T15:52:37;26.20;61.20
12853;DHT22;6495;51.808;7.478;2022-07-04T15:55:09;26.10;61.80
12853;DHT22;6495;51.808;7.478;2022-07-04T15:58:12;26.00;61.20
12853;DHT22;6495;51.808;7.478;2022-07-04T16:00:47;25.70;61.30
12853;DHT22;6495;51.808;7.478;2022-07-04T16:03:15;25.50;61.50
12853;DHT22;6495;51.808;7.478;2022-07-04T16:05:44;25.30;61.70
12853;DHT22;6495;51.808;7.478;2022-07-04T16:08:12;25.20;61.80
12853;DHT22;6495;51.808;7.478;2022-07-04T16:10:42;25.10;62.30
12853;DHT22;6495;51.808;7.478;2022-07-04T16:13:11;25.10;62.10
12853;DHT22;6495;51.808;7.478;2022-07-04T16:15:39;25.10;62.60
12853;DHT22;6495;51.808;7.478;2022-07-04T16:18:09;25.30;62.70
12853;DHT22;6495;51.808;7.478;2022-07-04T16:20:37;25.40;62.40
12853;DHT22;6495;51.808;7.478;2022-07-04T16:23:28;25.60;62.30
12853;DHT22;6495;51.808;7.478;2022-07-04T16:26:11;25.70;62.70
12853;DHT22;6495;51.808;7.478;2022-07-04T16:29:45;26.00;61.90
12853;DHT22;6495;51.808;7.478;2022-07-04T16:33:09;26.30;61.40
12853;DHT22;6495;51.808;7.478;2022-07-04T16:44:54;26.70;60.40
12853;DHT22;6495;51.808;7.478;2022-07-04T16:48:27;26.80;60.70
12853;DHT22;6495;51.808;7.478;2022-07-04T16:51:22;26.80;60.60